Time;durP1;ratioP1;P1;durP2;ratioP2;P2;SDS_P1;SDS_P2;PMS_P1;PMS_P2;Temp;Humidity;BMP_temperature;BMP_pressure;BME280_temperature;BME280_humidity;BME280_pressure;Samples;Min_cycle;Max_cycle;Signal;HPM_P1;HPM_P2
2021/11/08 00:00:58;;;;;;;19.77;4.95;;;;;;;5.65;100.00;101913.97;2609658;36;20030;-69
2021/11/08 00:06:45;;;;;;;24.45;5.30;;;;;;;5.50;100.00;101907.63;2609803;36;20034;-70
2021/11/08 00:09:13;;;;;;;32.88;5.90;;;;;;;5.53;100.00;101914.63;2611734;31;20037;-69
2021/11/08 00:14:34;;;;;;;23.60;4.57;;;;;;;5.48;100.00;101916.63;2612313;54;20057;-71
2021/11/08 00:17:10;;;;;;;22.58;5.63;;;;;;;5.36;100.00;101920.78;2610710;36;20042;-69
2021/11/08 00:23:16;;;;;;;22.85;4.68;;;;;;;5.50;100.00;101922.78;2627725;36;20565;-69
2021/11/08 00:26:06;;;;;;;17.55;4.88;;;;;;;5.47;100.00;101929.13;2608983;36;20057;-71
2021/11/08 00:31:45;;;;;;;22.33;4.80;;;;;;;5.43;100.00;101932.91;2610402;36;20035;-69
2021/11/08 00:34:13;;;;;;;25.55;4.90;;;;;;;5.53;100.00;101930.63;2610377;36;20483;-70
2021/11/08 00:36:44;;;;;;;29.67;5.43;;;;;;;5.64;100.00;101928.31;2611816;36;20570;-69
2021/11/08 00:39:13;;;;;;;15.63;4.93;;;;;;;5.60;100.00;101932.91;2610681;36;20064;-69
2021/11/08 00:49:59;;;;;;;18.08;4.57;;;;;;;5.75;100.00;101931.28;2611269;36;20059;-71
2021/11/08 00:52:29;;;;;;;16.15;4.28;;;;;;;5.82;100.00;101918.47;2611604;36;20662;-69
2021/11/08 00:55:04;;;;;;;21.88;5.10;;;;;;;5.87;100.00;101918.22;2610260;36;20061;-69
2021/11/08 00:57:34;;;;;;;26.98;4.88;;;;;;;5.90;100.00;101916.28;2610709;36;20054;-71
2021/11/08 01:05:27;;;;;;;22.63;4.07;;;;;;;5.98;100.00;101921.25;2610568;36;20543;-70
2021/11/08 01:07:57;;;;;;;15.20;3.58;;;;;;;5.92;100.00;101922.41;2610072;36;20150;-69
2021/11/08 01:10:29;;;;;;;24.23;4.20;;;;;;;5.87;100.00;101924.44;2609598;36;20137;-69
2021/11/08 01:15:57;;;;;;;15.13;3.72;;;;;;;5.69;100.00;101926.25;2609227;36;20660;-69
2021/11/08 01:18:25;;;;;;;20.88;4.70;;;;;;;5.65;100.00;101937.16;2610449;36;20038;-69
2021/11/08 01:21:03;;;;;;;20.10;4.03;;;;;;;5.64;100.00;101932.75;2611288;36;20501;-71
2021/11/08 01:26:49;;;;;;;19.65;4.07;;;;;;;5.60;100.00;101935.59;2611639;31;20511;-70
2021/11/08 01:29:44;;;;;;;18.15;3.78;;;;;;;5.49;100.00;101945.97;2611848;36;20031;-69
2021/11/08 01:32:12;;;;;;;13.73;3.58;;;;;;;5.43;100.00;101948.91;2613663;36;20053;-70
2021/11/08 01:37:22;;;;;;;14.55;4.32;;;;;;;5.34;100.00;101944.88;2612378;54;20033;-69
2021/11/08 01:40:17;;;;;;;17.27;4.17;;;;;;;5.19;100.00;101953.66;2610141;36;20158;-71
2021/11/08 01:45:26;;;;;;;19.48;4.38;;;;;;;5.02;100.00;101946.44;2613292;36;20030;-69
2021/11/08 01:48:10;;;;;;;17.88;4.50;;;;;;;4.98;100.00;101950.22;2614994;36;20149;-70
2021/11/08 01:50:43;;;;;;;14.65;4.20;;;;;;;4.92;100.00;101956.72;2613691;36;20114;-69
2021/11/08 01:53:19;;;;;;;17.40;4.68;;;;;;;4.92;100.00;101962.06;2612475;36;20031;-70
2021/11/08 01:55:50;;;;;;;20.80;4.93;;;;;;;4.91;100.00;101954.97;2611572;31;20077;-69
2021/11/08 02:01:18;;;;;;;17.95;4.88;;;;;;;4.82;100.00;101960.75;2610469;36;20030;-71
2021/11/08 02:03:47;;;;;;;20.08;4.32;;;;;;;4.74;100.00;101953.09;2611574;31;20612;-69
2021/11/08 02:06:15;;;;;;;18.08;4.60;;;;;;;4.79;100.00;101959.09;2611346;36;20579;-71
2021/11/08 02:08:44;;;;;;;15.40;4.40;;;;;;;4.71;100.00;101959.44;2611427;36;20165;-69
2021/11/08 02:11:20;;;;;;;15.68;4.85;;;;;;;4.66;100.00;101960.59;2610858;36;20038;-69
2021/11/08 02:13:48;;;;;;;17.45;4.65;;;;;;;4.63;100.00;101956.25;2611833;36;20052;-68
2021/11/08 02:16:17;;;;;;;23.53;5.13;;;;;;;4.57;100.00;101952.06;2612138;31;20038;-70
2021/11/08 02:18:46;;;;;;;22.00;5.18;;;;;;;4.51;100.00;101952.34;2611176;31;20030;-69
2021/11/08 02:21:23;;;;;;;19.77;5.70;;;;;;;4.47;100.00;101945.44;2608334;36;20057;-69
2021/11/08 02:26:32;;;;;;;22.90;5.82;;;;;;;4.42;100.00;101946.56;2611838;36;20049;-68
2021/11/08 02:29:00;;;;;;;22.30;5.40;;;;;;;4.43;100.00;101941.19;2611253;36;20077;-69
2021/11/08 02:31:38;;;;;;;18.08;5.13;;;;;;;4.41;100.00;101934.19;2612199;36;20174;-69
2021/11/08 02:34:12;;;;;;;20.17;5.18;;;;;;;4.43;100.00;101935.88;2613114;36;20474;-70
2021/11/08 02:37:07;;;;;;;19.70;4.60;;;;;;;4.34;100.00;101938.91;2613862;36;20531;-68
2021/11/08 02:39:37;;;;;;;23.08;5.35;;;;;;;4.38;100.00;101935.19;2614269;36;20054;-69
2021/11/08 02:44:52;;;;;;;20.67;5.38;;;;;;;4.40;100.00;101933.31;2629507;36;20069;-69
2021/11/08 02:47:21;;;;;;;16.08;4.95;;;;;;;4.39;100.00;101931.59;2610530;36;20097;-71
2021/11/08 02:49:52;;;;;;;27.95;5.80;;;;;;;4.42;100.00;101939.47;2611559;36;20034;-69
2021/11/08 02:52:33;;;;;;;16.08;5.43;;;;;;;4.39;100.00;101939.59;2611720;54;20031;-69
2021/11/08 02:55:04;;;;;;;28.88;5.90;;;;;;;4.38;100.00;101940.53;2611678;31;20554;-71
2021/11/08 02:58:00;;;;;;;23.52;5.47;;;;;;;4.33;100.00;101935.41;2610770;36;20729;-72
2021/11/08 03:00:36;;;;;;;29.90;6.35;;;;;;;4.35;100.00;101927.34;2610681;36;20031;-69
2021/11/08 03:03:05;;;;;;;25.50;6.30;;;;;;;4.34;100.00;101939.81;2613087;36;20031;-70
2021/11/08 03:08:05;;;;;;;24.58;6.45;;;;;;;4.38;100.00;101929.84;2610635;36;20141;-69
2021/11/08 03:13:53;;;;;;;25.05;6.20;;;;;;;4.41;100.00;101943.03;2609967;54;20038;-69
2021/11/08 03:16:55;;;;;;;21.80;6.00;;;;;;;4.33;100.00;101954.06;2610760;36;20037;-68
2021/11/08 03:22:46;;;;;;;15.85;5.65;;;;;;;4.32;100.00;101951.47;2609830;36;20053;-69
2021/11/08 03:28:21;;;;;;;19.00;5.72;;;;;;;4.27;100.00;101953.47;2610551;36;20030;-69
2021/11/08 03:33:36;;;;;;;32.63;7.13;;;;;;;4.35;100.00;101960.19;2610235;36;20045;-71
2021/11/08 03:36:14;;;;;;;24.45;6.25;;;;;;;4.38;100.00;101962.69;2611682;31;20034;-69
2021/11/08 03:39:04;;;;;;;23.42;6.25;;;;;;;4.29;100.00;101956.94;2611168;36;20142;-69
2021/11/08 03:48:07;;;;;;;30.55;6.68;;;;;;;4.27;100.00;101966.78;2609689;36;20061;-69
2021/11/08 03:50:54;;;;;;;30.27;7.18;;;;;;;4.28;100.00;101973.84;2611495;36;20027;-70
2021/11/08 03:53:25;;;;;;;28.52;7.95;;;;;;;4.25;100.00;101971.31;2611869;31;20031;-68
2021/11/08 03:59:37;;;;;;;29.90;6.15;;;;;;;4.25;100.00;101977.50;2628081;36;20030;-69
2021/11/08 04:04:55;;;;;;;27.27;5.97;;;;;;;4.20;100.00;101980.38;2610929;36;20038;-71
2021/11/08 04:07:31;;;;;;;23.55;6.80;;;;;;;4.13;100.00;101978.06;2611479;36;20493;-68
2021/11/08 04:10:01;;;;;;;21.05;6.43;;;;;;;4.11;100.00;101986.13;2611201;36;20652;-68
2021/11/08 04:19:33;;;;;;;25.25;6.63;;;;;;;4.00;100.00;101993.69;2627265;36;20412;-71
2021/11/08 04:22:15;;;;;;;22.15;7.97;;;;;;;4.02;100.00;101994.53;2610955;47;20042;-69
2021/11/08 04:33:16;;;;;;;26.83;6.25;;;;;;;4.00;100.00;102001.69;2609712;36;20034;-68
2021/11/08 04:42:09;;;;;;;24.05;5.95;;;;;;;4.07;100.00;102005.84;2609280;36;20035;-71
2021/11/08 04:53:52;;;;;;;15.18;5.72;;;;;;;4.02;100.00;102011.34;2609055;36;20041;-69
2021/11/08 05:22:56;;;;;;;31.92;6.47;;;;;;;4.42;100.00;102015.88;2611179;36;20435;-69
2021/11/08 05:28:31;;;;;;;25.77;6.40;;;;;;;4.34;100.00;102025.09;2611169;36;20030;-69
2021/11/08 05:31:02;;;;;;;19.48;6.40;;;;;;;4.37;100.00;102016.97;2610546;36;20042;-68
2021/11/08 05:33:30;;;;;;;29.92;6.30;;;;;;;4.37;100.00;102022.31;2610554;36;20153;-68
2021/11/08 05:50:07;;;;;;;;;;;;;;;;;;;;;
2021/11/08 06:49:12;;;;;;;20.15;6.10;;;;;;;5.11;100.00;102063.47;2609648;36;20606;-69
2021/11/08 06:51:44;;;;;;;23.98;6.68;;;;;;;5.04;100.00;102062.84;2609415;36;20164;-69
2021/11/08 07:02:56;;;;;;;26.85;7.38;;;;;;;5.07;100.00;102075.19;2609177;36;20034;-72
2021/11/08 07:05:25;;;;;;;26.80;7.35;;;;;;;5.03;100.00;102082.47;2611766;36;20131;-69
2021/11/08 07:10:37;;;;;;;29.42;7.03;;;;;;;4.98;100.00;102075.63;2628253;36;20159;-70
2021/11/08 07:13:44;;;;;;;19.08;5.90;;;;;;;5.00;100.00;102082.59;2607488;36;20034;-69
2021/11/08 07:16:15;;;;;;;21.92;6.55;;;;;;;4.98;100.00;102088.97;2608903;36;20526;-70
2021/11/08 07:18:44;;;;;;;24.33;6.45;;;;;;;4.97;100.00;102081.88;2624904;36;20035;-71
2021/11/08 07:27:48;;;;;;;21.77;6.55;;;;;;;5.12;100.00;102093.66;2607130;36;20570;-69
2021/11/08 07:30:16;;;;;;;;;;;;;;;5.19;100.00;102106.66;2611617;36;20488;-69
2021/11/08 07:32:47;;;;;;;22.02;6.53;;;;;;;5.29;100.00;102109.78;2610907;36;19950;-70
2021/11/08 07:35:15;;;;;;;26.38;7.15;;;;;;;5.38;100.00;102114.69;2611561;36;20090;-71
2021/11/08 07:37:44;;;;;;;21.08;6.47;;;;;;;5.44;100.00;102114.38;2611120;36;20592;-69
2021/11/08 07:40:13;;;;;;;24.60;6.97;;;;;;;5.52;100.00;102127.41;2608335;36;20087;-71
2021/11/08 07:42:42;;;;;;;20.52;7.28;;;;;;;5.61;100.00;102126.09;2601290;36;20126;-68
2021/11/08 07:45:11;;;;;;;26.73;11.23;;;;;;;5.69;100.00;102129.25;2609217;36;20038;-70
2021/11/08 07:47:39;;;;;;;26.42;7.47;;;;;;;5.80;100.00;102144.78;2610551;36;20651;-69
2021/11/08 07:50:13;;;;;;;25.88;8.68;;;;;;;5.92;100.00;102138.00;2611608;36;20121;-69
2021/11/08 07:52:44;;;;;;;21.48;7.57;;;;;;;6.06;100.00;102148.03;2610173;36;20684;-69
2021/11/08 07:55:12;;;;;;;18.50;5.97;;;;;;;6.14;100.00;102154.72;2610661;36;20182;-69
2021/11/08 07:57:41;;;;;;;23.10;6.80;;;;;;;6.19;100.00;102154.50;2610502;36;20061;-69
2021/11/08 08:00:10;;;;;;;26.90;6.97;;;;;;;6.26;100.00;102149.72;2610796;36;20031;-70
2021/11/08 08:02:39;;;;;;;25.95;6.97;;;;;;;6.22;100.00;102150.81;2610636;31;20134;-68
2021/11/08 08:05:08;;;;;;;21.42;6.82;;;;;;;6.25;100.00;102147.97;2611114;36;20046;-69
2021/11/08 08:07:39;;;;;;;25.23;7.45;;;;;;;6.26;100.00;102157.75;2610577;36;20166;-69
2021/11/08 08:10:07;;;;;;;25.67;6.03;;;;;;;6.34;100.00;102160.88;2611799;36;20042;-69
2021/11/08 08:12:36;;;;;;;21.65;6.30;;;;;;;6.39;100.00;102157.97;2611043;36;20059;-69
2021/11/08 08:15:05;;;;;;;20.60;6.65;;;;;;;6.42;100.00;102165.84;2611372;36;20034;-69
2021/11/08 08:17:48;;;;;;;19.17;5.82;;;;;;;6.41;100.00;102165.00;2611591;36;22979;-70
2021/11/08 08:20:22;;;;;;;18.60;5.70;;;;;;;6.48;100.00;102162.88;2611457;36;20043;-70
2021/11/08 08:22:53;;;;;;;17.80;6.45;;;;;;;6.54;100.00;102154.53;2611539;36;20574;-69
2021/11/08 08:25:21;;;;;;;22.35;5.88;;;;;;;6.51;100.00;102162.72;2612284;31;20528;-69
2021/11/08 08:27:50;;;;;;;23.42;7.00;;;;;;;6.55;100.00;102160.75;2610720;36;20035;-70
2021/11/08 08:30:18;;;;;;;22.35;5.68;;;;;;;6.54;100.00;102162.56;2611039;36;20169;-71
2021/11/08 08:32:47;;;;;;;17.15;5.28;;;;;;;6.58;100.00;102156.13;2612005;31;20621;-68
2021/11/08 08:35:17;;;;;;;19.52;5.97;;;;;;;6.63;100.00;102166.59;2610337;36;20069;-71
2021/11/08 08:38:18;;;;;;;24.63;6.25;;;;;;;6.70;100.00;102164.44;2611146;36;20065;-71
2021/11/08 08:40:49;;;;;;;19.90;4.82;;;;;;;6.86;100.00;102170.75;2628324;36;20081;-70
2021/11/08 08:43:20;;;;;;;17.75;5.22;;;;;;;6.97;100.00;102173.72;2610380;36;20871;-69
2021/11/08 08:45:49;;;;;;;18.08;5.18;;;;;;;7.12;100.00;102171.19;2611290;31;20061;-69
2021/11/08 10:09:48;;;;;;;17.63;4.57;;;;;;;9.46;100.00;102192.59;2613175;39;20503;-68
2021/11/08 10:12:19;;;;;;;14.27;4.57;;;;;;;9.44;100.00;102197.22;2611849;36;20085;-70
2021/11/08 10:14:51;;;;;;;17.63;4.70;;;;;;;9.56;100.00;102189.38;2611003;36;20582;-69
2021/11/08 10:17:23;;;;;;;17.45;4.47;;;;;;;9.68;100.00;102185.88;2611063;36;20031;-71
2021/11/08 10:19:59;;;;;;;23.90;4.45;;;;;;;9.74;100.00;102190.88;2627581;36;20043;-68
2021/11/08 10:22:32;;;;;;;16.92;4.25;;;;;;;9.86;100.00;102191.91;2629046;31;20030;-69
2021/11/08 10:25:05;;;;;;;16.30;4.10;;;;;;;10.02;100.00;102197.16;2612327;54;20042;-68
2021/11/08 10:27:45;;;;;;;15.43;3.42;;;;;;;10.12;100.00;102192.91;2610448;36;20031;-69
2021/11/08 10:30:33;;;;;;;13.48;3.83;;;;;;;10.40;100.00;102196.50;2611176;36;20053;-70
2021/11/08 10:33:19;;;;;;;14.73;3.85;;;;;;;10.55;100.00;102194.59;2610312;36;20141;-70
2021/11/08 10:35:49;;;;;;;17.10;3.30;;;;;;;10.41;100.00;102195.53;2610558;36;20034;-72
2021/11/08 10:38:23;;;;;;;18.58;3.55;;;;;;;10.47;100.00;102188.91;2644631;36;20030;-69
2021/11/08 10:40:58;;;;;;;11.07;2.90;;;;;;;10.51;100.00;102187.69;2611191;36;20031;-70
2021/11/08 10:43:33;;;;;;;13.20;3.05;;;;;;;10.49;100.00;102177.03;2629241;36;20035;-72
2021/11/08 10:46:13;;;;;;;14.15;2.53;;;;;;;10.50;100.00;102180.63;2611237;36;20414;-70
2021/11/08 10:48:47;;;;;;;16.80;3.38;;;;;;;10.71;100.00;102190.91;2612224;36;20030;-70
2021/11/08 10:51:19;;;;;;;14.57;2.60;;;;;;;10.97;100.00;102189.13;2611292;36;20059;-70
2021/11/08 10:53:57;;;;;;;14.38;3.03;;;;;;;11.15;100.00;102187.81;2611258;36;20167;-70
2021/11/08 10:56:37;;;;;;;12.18;2.92;;;;;;;11.14;100.00;102175.31;2641891;36;20034;-70
2021/11/08 10:59:14;;;;;;;12.95;2.65;;;;;;;11.22;100.00;102197.19;2609490;36;20034;-70
2021/11/08 11:01:47;;;;;;;13.13;2.75;;;;;;;11.38;100.00;102193.41;2610661;36;20061;-70
2021/11/08 11:04:17;;;;;;;14.43;3.15;;;;;;;11.43;100.00;102201.19;2608250;36;20030;-70
2021/11/08 11:06:52;;;;;;;12.82;2.75;;;;;;;11.44;100.00;102187.59;2609926;36;20041;-72
2021/11/08 11:09:48;;;;;;;14.07;2.35;;;;;;;11.13;100.00;102179.00;2628792;36;20034;-71
2021/11/08 11:12:33;;;;;;;14.38;2.58;;;;;;;11.19;100.00;102204.66;2628162;31;20038;-70
2021/11/08 11:15:16;;;;;;;16.83;3.08;;;;;;;11.10;100.00;102200.78;2610420;36;20046;-71
2021/11/08 11:18:04;;;;;;;17.55;2.80;;;;;;;11.04;100.00;102202.06;2628263;36;20057;-71
2021/11/08 11:20:36;;;;;;;13.30;2.92;;;;;;;11.12;100.00;102209.59;2628470;31;20041;-72
2021/11/08 11:23:09;;;;;;;16.42;2.97;;;;;;;11.14;100.00;102201.41;2612176;36;20498;-73
2021/11/08 11:25:42;;;;;;;15.02;2.90;;;;;;;11.09;100.00;102204.41;2610671;36;21552;-71
2021/11/08 11:28:15;;;;;;;15.00;3.08;;;;;;;11.10;100.00;102199.88;2611526;36;20530;-71
2021/11/08 11:30:45;;;;;;;19.73;3.45;;;;;;;11.15;100.00;102204.00;2611403;36;20038;-73
2021/11/08 11:33:35;;;;;;;15.73;3.35;;;;;;;11.26;100.00;102200.53;2612025;36;20509;-72
2021/11/08 11:36:10;;;;;;;12.63;3.05;;;;;;;11.42;100.00;102218.34;2612143;47;20119;-72
2021/11/08 11:38:52;;;;;;;12.77;2.88;;;;;;;11.48;100.00;102209.81;2611567;31;20030;-71
2021/11/08 11:41:25;;;;;;;11.75;2.78;;;;;;;11.64;100.00;102212.28;2629788;36;20050;-71
2021/11/08 11:44:03;;;;;;;9.85;2.95;;;;;;;11.86;100.00;102215.16;2614081;36;20061;-73
2021/11/08 11:46:36;;;;;;;11.45;2.75;;;;;;;11.77;100.00;102202.34;2632832;31;20472;-71
2021/11/08 11:49:21;;;;;;;13.32;3.17;;;;;;;11.73;100.00;102203.53;2613774;31;20034;-70
2021/11/08 12:00:23;;;;;;;17.75;2.45;;;;;;;11.73;100.00;102203.53;2628447;36;20043;-70
2021/11/08 12:03:17;;;;;;;;;;;;;;;;;;;;;
2021/11/08 12:06:07;;;;;;;10.63;2.75;;;;;;;11.88;100.00;102202.44;2627799;36;20428;-71
2021/11/08 12:08:39;;;;;;;11.98;2.72;;;;;;;11.56;100.00;102204.75;2630381;31;20041;-72
2021/11/08 12:11:35;;;;;;;17.10;2.70;;;;;;;11.73;100.00;102204.41;2629228;36;20042;-71
2021/11/08 12:14:26;;;;;;;16.95;3.35;;;;;;;11.75;100.00;102201.59;2629401;36;20062;-71
2021/11/08 12:17:25;;;;;;;15.50;3.42;;;;;;;11.74;100.00;102202.56;2631924;36;20031;-73
2021/11/08 12:20:09;;;;;;;10.63;3.00;;;;;;;11.70;100.00;102204.63;2611962;36;20035;-71
2021/11/08 12:22:46;;;;;;;16.17;2.83;;;;;;;11.85;100.00;102197.25;2629526;36;20031;-71
2021/11/08 12:25:29;;;;;;;20.42;3.35;;;;;;;11.85;100.00;102191.84;2629653;36;20517;-72
2021/11/08 12:28:15;;;;;;;16.73;2.78;;;;;;;11.76;100.00;102192.50;2612187;36;20060;-71
2021/11/08 12:31:00;;;;;;;11.63;2.88;;;;;;;11.61;100.00;102191.78;2630116;36;20061;-71
2021/11/08 12:34:00;;;;;;;11.15;2.53;;;;;;;11.80;100.00;102191.31;2612010;36;20038;-73
2021/11/08 12:36:33;;;;;;;10.95;2.83;;;;;;;11.96;100.00;102187.56;2630124;36;20034;-71
2021/11/08 12:39:12;;;;;;;10.18;2.83;;;;;;;11.99;100.00;102181.91;2610893;36;20065;-72
2021/11/08 12:44:52;;;;;;;10.55;3.00;;;;;;;11.82;100.00;102181.28;2612528;36;20042;-71
2021/11/08 12:47:34;;;;;;;16.90;3.20;;;;;;;11.65;100.00;102170.88;2625895;36;20030;-71
2021/11/08 12:50:15;;;;;;;12.80;2.67;;;;;;;11.48;100.00;102169.38;2629571;36;20078;-72
2021/11/08 13:44:10;;;;;;;10.75;2.20;;;;;;;10.90;100.00;102187.81;2615735;46;20049;-71
2021/11/08 13:46:40;;;;;;;12.18;1.83;;;;;;;11.04;100.00;102195.78;2613100;36;20037;-71
2021/11/08 13:49:11;;;;;;;14.88;2.47;;;;;;;11.11;100.00;102193.53;2612304;36;20085;-72
2021/11/08 13:51:44;;;;;;;11.50;2.22;;;;;;;11.10;100.00;102195.38;2612652;36;20035;-73
2021/11/08 13:54:17;;;;;;;10.15;2.78;;;;;;;11.18;100.00;102198.38;2612372;36;20069;-72
2021/11/08 14:08:53;;;;;;;15.48;2.53;;;;;;;11.08;100.00;102197.28;2628698;36;20058;-72
2021/11/08 14:11:32;;;;;;;11.90;2.50;;;;;;;10.96;100.00;102200.84;2610529;36;20161;-71
2021/11/08 14:14:55;;;;;;;16.13;3.17;;;;;;;11.08;100.00;102200.00;2612680;36;20089;-72
2021/11/08 14:25:07;;;;;;;10.65;2.13;;;;;;;10.73;100.00;102203.28;2628487;36;20150;-73
2021/11/08 17:22:55;;;;;;;10.77;3.88;;;;;;;8.97;100.00;102343.34;2628933;36;20558;-70
2021/11/08 17:25:41;;;;;;;11.88;4.22;;;;;;;8.88;100.00;102354.63;2612328;36;20385;-71
2021/11/08 17:34:12;;;;;;;15.40;6.20;;;;;;;8.93;100.00;102361.44;2610117;36;20862;-69
2021/11/08 17:36:53;;;;;;;13.35;6.13;;;;;;;8.95;100.00;102366.72;2611797;36;20114;-71
2021/11/08 17:42:32;;;;;;;12.95;6.22;;;;;;;9.00;100.00;102361.09;2610899;36;21284;-71
2021/11/08 17:45:02;;;;;;;12.57;4.82;;;;;;;9.05;100.00;102359.84;2609085;36;20186;-71
2021/11/08 17:47:31;;;;;;;15.45;5.22;;;;;;;8.95;100.00;102369.41;2610279;36;20049;-70
2021/11/08 17:49:59;;;;;;;14.57;5.05;;;;;;;8.89;100.00;102369.75;2610099;36;20030;-70
2021/11/08 17:52:30;;;;;;;12.57;4.78;;;;;;;8.97;100.00;102372.88;2610221;36;20078;-71
2021/11/08 17:55:02;;;;;;;13.82;4.53;;;;;;;9.03;100.00;102374.34;2610499;36;20141;-70
2021/11/08 17:57:31;;;;;;;15.13;4.93;;;;;;;8.93;100.00;102374.00;2610556;36;20031;-72
2021/11/08 17:59:59;;;;;;;9.32;4.03;;;;;;;9.00;100.00;102378.06;2610660;36;20499;-73
2021/11/08 18:02:28;;;;;;;10.95;2.53;;;;;;;9.01;100.00;102379.81;2610961;36;20061;-71
2021/11/08 18:04:56;;;;;;;10.38;2.90;;;;;;;8.93;100.00;102379.38;2611536;36;20483;-71
2021/11/08 18:07:24;;;;;;;9.07;2.80;;;;;;;8.90;100.00;102380.41;2612015;36;20162;-71
2021/11/08 18:09:58;;;;;;;17.30;3.97;;;;;;;8.78;100.00;102386.50;2610766;36;20117;-72
2021/11/08 18:12:27;;;;;;;16.80;4.18;;;;;;;8.74;100.00;102384.94;2611803;36;20084;-70
2021/11/08 18:18:35;;;;;;;13.37;4.97;;;;;;;8.76;100.00;102397.31;2626577;36;20121;-72
2021/11/08 18:21:23;;;;;;;19.17;5.82;;;;;;;8.67;100.00;102396.97;2611208;31;20042;-71
2021/11/08 18:23:58;;;;;;;20.77;6.28;;;;;;;8.61;100.00;102394.63;2608999;36;20031;-71
2021/11/08 18:29:13;;;;;;;13.70;6.45;;;;;;;8.64;100.00;102400.66;2609562;36;20042;-71
2021/11/08 18:31:41;;;;;;;21.97;6.87;;;;;;;8.62;100.00;102407.94;2609978;36;20035;-70
2021/11/08 18:34:21;;;;;;;20.35;7.90;;;;;;;8.58;100.00;102406.38;2609936;36;20353;-71
2021/11/08 18:36:54;;;;;;;21.33;8.15;;;;;;;8.56;100.00;102402.94;2610697;36;20030;-71
2021/11/08 18:39:22;;;;;;;21.15;8.55;;;;;;;8.54;100.00;102396.78;2610710;36;20471;-72
2021/11/08 18:41:54;;;;;;;17.63;8.03;;;;;;;8.57;100.00;102404.69;2609689;36;20117;-70
2021/11/08 18:44:30;;;;;;;19.45;9.75;;;;;;;8.54;100.00;102402.16;2608948;36;20189;-71
2021/11/08 18:46:58;;;;;;;18.45;8.88;;;;;;;8.53;100.00;102408.47;2610183;36;20142;-71
2021/11/08 18:49:30;;;;;;;24.17;8.70;;;;;;;8.51;100.00;102405.00;2610205;36;20217;-71
2021/11/08 18:51:59;;;;;;;17.42;8.80;;;;;;;8.58;100.00;102406.38;2611060;36;20053;-71
2021/11/08 18:54:28;;;;;;;21.53;8.73;;;;;;;8.56;100.00;102409.16;2610041;36;20454;-72
2021/11/08 18:57:01;;;;;;;16.65;8.45;;;;;;;8.51;100.00;102405.00;2610851;36;20075;-71
2021/11/08 18:59:32;;;;;;;24.05;8.85;;;;;;;8.47;100.00;102406.13;2611015;36;20039;-71
2021/11/08 19:02:06;;;;;;;24.30;10.73;;;;;;;8.45;100.00;102402.66;2611230;36;20030;-71
2021/11/08 19:04:39;;;;;;;28.48;11.73;;;;;;;8.46;100.00;102399.03;2611007;36;20027;-71
2021/11/08 19:07:16;;;;;;;20.88;11.07;;;;;;;8.36;100.00;102396.81;2610036;36;20578;-72
2021/11/08 19:09:45;;;;;;;23.30;12.90;;;;;;;8.35;100.00;102394.22;2610068;36;20034;-71
2021/11/08 19:12:17;;;;;;;24.27;11.90;;;;;;;8.31;100.00;102393.50;2610431;36;20069;-70
2021/11/08 19:14:45;;;;;;;22.60;11.63;;;;;;;8.33;100.00;102391.63;2608721;36;20404;-70
2021/11/08 19:17:28;;;;;;;28.20;13.40;;;;;;;8.35;100.00;102413.00;2608938;36;20037;-70
2021/11/08 19:20:04;;;;;;;23.95;13.73;;;;;;;8.24;100.00;102403.72;2609721;36;20399;-71
2021/11/08 19:22:34;;;;;;;29.30;15.23;;;;;;;8.28;100.00;102407.09;2609684;36;20535;-72
2021/11/08 19:25:05;;;;;;;25.60;14.32;;;;;;;8.27;100.00;102408.03;2623059;36;20466;-71
2021/11/08 19:27:44;;;;;;;31.92;13.95;;;;;;;8.20;100.00;102406.63;2626846;36;20088;-71
2021/11/08 19:30:46;;;;;;;22.58;13.07;;;;;;;8.17;100.00;102396.06;2609224;36;20041;-70
2021/11/08 19:33:35;;;;;;;26.25;14.43;;;;;;;8.15;100.00;102401.50;2610421;36;20058;-70
2021/11/08 19:41:48;;;;;;;32.17;15.02;;;;;;;7.91;100.00;102395.66;2611225;39;20434;-71
2021/11/08 19:44:22;;;;;;;26.58;13.40;;;;;;;7.84;100.00;102396.91;2625093;36;20330;-72
2021/11/08 19:47:14;;;;;;;24.58;13.73;;;;;;;7.79;100.00;102396.28;2627092;36;20034;-71
2021/11/08 19:52:38;;;;;;;23.35;12.98;;;;;;;7.73;100.00;102400.19;2610007;36;20165;-71
2021/11/08 19:55:20;;;;;;;26.92;13.13;;;;;;;7.66;100.00;102396.94;2610639;36;20490;-71
2021/11/08 19:58:00;;;;;;;26.92;12.38;;;;;;;7.61;100.00;102398.09;2611054;36;20035;-71
2021/11/08 20:00:37;;;;;;;30.15;12.85;;;;;;;7.53;100.00;102399.38;2606544;36;20180;-72
2021/11/08 20:03:29;;;;;;;24.40;12.48;;;;;;;7.49;100.00;102399.59;2610296;36;20042;-71
2021/11/08 20:06:03;;;;;;;22.00;13.05;;;;;;;7.42;100.00;102408.88;2610620;31;20034;-71
2021/11/08 20:08:46;;;;;;;26.80;13.65;;;;;;;7.33;100.00;102405.75;2626103;36;20551;-71
2021/11/08 20:11:35;;;;;;;28.48;12.93;;;;;;;7.40;100.00;102405.44;2611017;36;20133;-71
2021/11/08 20:14:09;;;;;;;26.45;13.63;;;;;;;7.36;100.00;102412.75;2610858;36;20635;-72
2021/11/08 20:16:57;;;;;;;24.30;12.57;;;;;;;7.35;100.00;102414.56;2609968;36;20161;-71
2021/11/08 20:19:29;;;;;;;29.85;12.98;;;;;;;7.29;100.00;102425.59;2627210;36;21010;-71
2021/11/08 20:22:00;;;;;;;29.67;14.07;;;;;;;7.27;100.00;102416.75;2610093;36;20054;-71
2021/11/08 20:24:41;;;;;;;35.30;14.25;;;;;;;7.29;100.00;102424.72;2627754;31;20030;-71
2021/11/08 20:27:15;;;;;;;29.50;14.30;;;;;;;7.25;100.00;102428.50;2609151;36;20138;-73
2021/11/08 20:29:51;;;;;;;24.80;13.15;;;;;;;7.16;100.00;102436.03;2610315;36;20058;-72
2021/11/08 20:32:40;;;;;;;28.50;13.20;;;;;;;7.18;100.00;102444.00;2644898;36;20034;-71
2021/11/08 20:35:32;;;;;;;;;;;;;;;7.17;100.00;102452.97;2609894;31;20042;-71
2021/11/08 20:38:05;;;;;;;29.38;13.05;;;;;;;7.15;100.00;102455.72;2608633;36;19946;-71
2021/11/08 20:40:45;;;;;;;31.63;13.02;;;;;;;7.18;100.00;102444.88;2626481;36;20038;-71
2021/11/08 20:46:46;;;;;;;25.50;13.85;;;;;;;7.17;100.00;102447.63;2607454;36;20038;-72
2021/11/08 20:52:23;;;;;;;33.00;14.23;;;;;;;7.26;100.00;102444.50;2610194;36;20050;-70
2021/11/08 20:55:03;;;;;;;40.47;15.75;;;;;;;7.28;100.00;102449.78;2639892;36;20603;-72
2021/11/08 20:57:48;;;;;;;36.25;14.27;;;;;;;7.19;100.00;102443.06;2609378;31;20039;-71
2021/11/08 21:00:20;;;;;;;41.42;15.60;;;;;;;7.15;100.00;102454.84;2608402;31;20069;-71
2021/11/08 21:02:53;;;;;;;32.80;14.85;;;;;;;7.11;100.00;102458.63;2608214;36;20034;-70
2021/11/08 21:05:26;;;;;;;34.95;15.27;;;;;;;7.09;100.00;102457.84;2608005;36;20042;-70
2021/11/08 21:10:53;;;;;;;36.25;14.02;;;;;;;6.96;100.00;102466.47;2608023;31;20602;-70
2021/11/08 21:13:46;;;;;;;25.48;13.73;;;;;;;6.90;100.00;102468.53;2608949;36;20419;-70
2021/11/08 21:16:14;;;;;;;37.72;15.07;;;;;;;6.84;100.00;102472.38;2609325;31;20034;-71
2021/11/08 21:18:43;;;;;;;36.13;15.20;;;;;;;6.75;100.00;102476.34;2609309;36;20062;-71
2021/11/08 21:21:14;;;;;;;36.42;15.48;;;;;;;6.74;100.00;102479.09;2609812;36;20131;-70
2021/11/08 21:23:45;;;;;;;28.77;14.02;;;;;;;6.65;100.00;102483.97;2609899;36;20555;-71
2021/11/08 21:26:15;;;;;;;29.52;14.73;;;;;;;6.63;100.00;102475.13;2609744;36;20093;-70
2021/11/08 21:29:07;;;;;;;29.05;15.38;;;;;;;6.62;100.00;102470.69;2608268;36;20031;-70
2021/11/08 21:40:05;;;;;;;29.83;13.88;;;;;;;6.30;100.00;102478.38;2611454;31;20529;-70
2021/11/08 21:42:49;;;;;;;;;;;;;;;;;;;;;
2021/11/08 21:45:35;;;;;;;35.95;14.93;;;;;;;6.14;100.00;102478.19;2612707;54;20042;-71
2021/11/08 21:48:27;;;;;;;33.53;15.05;;;;;;;6.14;100.00;102472.00;2629011;36;20471;-70
2021/11/08 21:51:03;;;;;;;36.42;14.75;;;;;;;6.16;100.00;102467.44;2628675;31;20042;-72
2021/11/08 21:53:44;;;;;;;37.58;15.32;;;;;;;6.15;100.00;102473.72;2630998;36;20038;-72
2021/11/08 21:56:34;;;;;;;34.20;14.55;;;;;;;6.12;100.00;102464.03;2630350;36;20030;-70
2021/11/08 21:59:28;;;;;;;37.25;15.88;;;;;;;6.11;100.00;102469.44;2610576;54;20034;-72
2021/11/08 22:02:13;;;;;;;40.13;15.63;;;;;;;6.16;100.00;102469.25;2609313;36;20050;-72